Time;durP1;ratioP1;P1;durP2;ratioP2;P2;SDS_P1;SDS_P2;PMS_P1;PMS_P2;Temp;Humidity;BMP_temperature;BMP_pressure;BME280_temperature;BME280_humidity;BME280_pressure;Samples;Min_cycle;Max_cycle;Signal;HPM_P1;HPM_P2
2022/07/31 00:00:55;;;;;;;3.15;1.40;;;;;;;;;;4947656;28;20035;-87
2022/07/31 00:03:20;;;;;;;2.25;1.50;;;;;;;;;;4948089;28;20571;-87
2022/07/31 00:05:46;;;;;;;2.30;1.50;;;;;;;;;;4949738;28;20035;-88
2022/07/31 00:08:11;;;;;;;2.53;1.50;;;;;;;;;;4949268;28;20039;-88
2022/07/31 00:10:37;;;;;;;2.20;1.60;;;;;;;;;;4966050;28;20022;-88
2022/07/31 00:13:03;;;;;;;2.42;1.35;;;;;;;;;;4951874;28;20050;-89
2022/07/31 00:15:28;;;;;;;1.90;1.50;;;;;;;;;;4951163;28;20042;-89
2022/07/31 00:17:54;;;;;;;3.47;1.70;;;;;;;;;;4950617;28;20042;-90
2022/07/31 00:20:19;;;;;;;2.75;1.77;;;;;;;;;;4950833;28;20063;-91
2022/07/31 00:22:47;;;;;;;2.50;1.38;;;;;;;;;;4966817;28;20027;-90
2022/07/31 00:25:15;;;;;;;2.03;1.38;;;;;;;;;;4952668;28;20033;-91
2022/07/31 00:27:41;;;;;;;2.17;1.48;;;;;;;;;;4966692;28;20396;-90
2022/07/31 00:30:08;;;;;;;1.70;1.40;;;;;;;;;;4952930;28;20075;-91
2022/07/31 00:32:34;;;;;;;1.58;1.20;;;;;;;;;;4950775;28;20452;-90
2022/07/31 00:35:00;;;;;;;1.60;1.30;;;;;;;;;;4950016;28;20142;-90
2022/07/31 00:37:26;;;;;;;1.85;1.52;;;;;;;;;;4953525;28;20027;-91
2022/07/31 00:39:53;;;;;;;3.50;1.60;;;;;;;;;;4950902;28;20039;-91
2022/07/31 00:42:20;;;;;;;1.92;1.63;;;;;;;;;;4967348;28;20059;-91
2022/07/31 00:44:46;;;;;;;2.08;1.65;;;;;;;;;;4950440;28;20043;-89
2022/07/31 00:47:11;;;;;;;1.60;1.50;;;;;;;;;;4952562;28;20051;-91
2022/07/31 00:49:37;;;;;;;3.25;1.58;;;;;;;;;;4951385;28;20019;-91
2022/07/31 00:52:03;;;;;;;5.88;1.83;;;;;;;;;;4950575;29;20030;-91
2022/07/31 00:54:28;;;;;;;2.25;1.45;;;;;;;;;;4956064;28;20107;-91
2022/07/31 00:56:54;;;;;;;2.25;1.48;;;;;;;;;;4950254;28;20510;-91
2022/07/31 00:59:19;;;;;;;5.10;1.70;;;;;;;;;;4952632;28;20101;-92
2022/07/31 01:01:44;;;;;;;2.05;1.50;;;;;;;;;;4952535;28;20025;-91
2022/07/31 01:04:12;;;;;;;2.50;1.67;;;;;;;;;;4968990;28;20403;-91
2022/07/31 01:06:37;;;;;;;2.72;1.55;;;;;;;;;;4954445;28;20059;-89
2022/07/31 01:09:03;;;;;;;2.95;1.42;;;;;;;;;;4948135;28;20078;-91
2022/07/31 01:11:40;;;;;;;2.63;1.73;;;;;;;;;;4955732;28;20041;-91
2022/07/31 01:14:07;;;;;;;3.55;1.52;;;;;;;;;;4955102;28;20031;-91
2022/07/31 01:16:39;;;;;;;2.67;1.60;;;;;;;;;;4965348;28;20537;-92
2022/07/31 01:19:18;;;;;;;2.80;1.60;;;;;;;;;;4969645;28;20031;-91
2022/07/31 01:21:57;;;;;;;3.30;1.50;;;;;;;;;;4970727;28;20138;-92
2022/07/31 01:24:41;;;;;;;2.65;1.45;;;;;;;;;;4952458;28;20046;-91
2022/07/31 01:27:24;;;;;;;3.33;1.60;;;;;;;;;;4952106;28;20039;-92
2022/07/31 01:29:53;;;;;;;2.42;1.70;;;;;;;;;;4966220;28;20127;-92
2022/07/31 01:32:31;;;;;;;2.63;1.90;;;;;;;;;;4955778;28;20047;-92
2022/07/31 01:35:03;;;;;;;4.10;2.13;;;;;;;;;;4954683;28;20094;-91
2022/07/31 01:37:32;;;;;;;3.92;1.63;;;;;;;;;;4952849;29;20023;-92
2022/07/31 01:40:07;;;;;;;4.43;1.90;;;;;;;;;;4954719;29;20043;-92
2022/07/31 01:42:36;;;;;;;2.53;1.95;;;;;;;;;;4941553;29;20585;-92
2022/07/31 01:45:04;;;;;;;3.22;1.70;;;;;;;;;;4956232;28;20098;-92
2022/07/31 01:47:31;;;;;;;2.50;1.60;;;;;;;;;;4970875;28;20511;-92
2022/07/31 01:49:58;;;;;;;2.67;1.77;;;;;;;;;;4967089;28;20105;-92
2022/07/31 01:52:27;;;;;;;3.20;1.88;;;;;;;;;;4962307;28;20038;-92
2022/07/31 01:54:53;;;;;;;2.28;1.75;;;;;;;;;;4966987;28;20039;-92
2022/07/31 01:57:22;;;;;;;4.35;2.33;;;;;;;;;;4950431;28;20130;-92
2022/07/31 01:59:49;;;;;;;2.85;1.60;;;;;;;;;;4949220;28;20182;-92
2022/07/31 02:02:16;;;;;;;2.85;1.80;;;;;;;;;;4956159;28;20054;-92
2022/07/31 02:04:41;;;;;;;4.13;2.20;;;;;;;;;;4953962;28;20023;-92
2022/07/31 02:07:08;;;;;;;3.00;1.90;;;;;;;;;;4956110;29;20027;-90
2022/07/31 02:09:34;;;;;;;2.25;1.75;;;;;;;;;;4947453;28;20030;-91
2022/07/31 02:12:01;;;;;;;2.03;1.50;;;;;;;;;;4953067;28;21009;-91
2022/07/31 02:14:27;;;;;;;2.97;2.10;;;;;;;;;;4948444;28;20084;-93
2022/07/31 02:16:54;;;;;;;2.78;1.70;;;;;;;;;;4964188;28;20035;-92
2022/07/31 02:19:20;;;;;;;2.92;1.85;;;;;;;;;;4953923;29;20059;-91
2022/07/31 02:21:45;;;;;;;3.22;1.67;;;;;;;;;;4965790;28;20035;-91
2022/07/31 02:24:11;;;;;;;3.25;2.03;;;;;;;;;;4953508;28;20427;-91
2022/07/31 02:26:39;;;;;;;7.78;2.20;;;;;;;;;;4967109;28;20118;-91
2022/07/31 02:29:07;;;;;;;3.40;2.00;;;;;;;;;;4951631;28;20095;-91
2022/07/31 02:31:34;;;;;;;4.78;1.92;;;;;;;;;;4969473;28;20027;-92
2022/07/31 02:33:59;;;;;;;2.55;2.03;;;;;;;;;;4954879;29;20015;-92
2022/07/31 02:36:26;;;;;;;4.35;1.90;;;;;;;;;;4954511;28;21179;-92
2022/07/31 02:38:53;;;;;;;3.10;2.08;;;;;;;;;;4969646;28;20059;-92
2022/07/31 02:41:20;;;;;;;3.55;1.95;;;;;;;;;;4955247;28;20031;-93
2022/07/31 02:43:46;;;;;;;3.17;1.80;;;;;;;;;;4954363;28;20039;-92
2022/07/31 02:46:13;;;;;;;3.22;1.55;;;;;;;;;;4956223;29;20031;-93
2022/07/31 02:48:40;;;;;;;3.08;1.75;;;;;;;;;;4966409;28;20035;-93
2022/07/31 02:51:06;;;;;;;2.72;1.92;;;;;;;;;;4954556;28;20511;-92
2022/07/31 02:53:32;;;;;;;4.32;1.80;;;;;;;;;;4954707;28;20041;-92
2022/07/31 02:56:00;;;;;;;3.70;1.85;;;;;;;;;;4969560;28;20094;-91
2022/07/31 02:58:26;;;;;;;2.30;1.50;;;;;;;;;;4954411;29;20057;-91
2022/07/31 03:00:59;;;;;;;2.92;2.00;;;;;;;;;;4952959;28;21324;-91
2022/07/31 03:03:25;;;;;;;2.30;1.55;;;;;;;;;;4966773;28;20039;-91
2022/07/31 03:05:51;;;;;;;3.70;2.03;;;;;;;;;;4952216;28;20054;-91
2022/07/31 03:08:16;;;;;;;3.35;2.10;;;;;;;;;;4954710;28;20049;-91
2022/07/31 03:10:42;;;;;;;3.72;1.98;;;;;;;;;;4967701;28;20027;-86
2022/07/31 03:13:08;;;;;;;3.38;1.92;;;;;;;;;;4950923;29;20901;-91
2022/07/31 03:15:35;;;;;;;2.58;1.90;;;;;;;;;;4952010;28;20085;-88
2022/07/31 03:18:01;;;;;;;4.15;2.03;;;;;;;;;;4952615;28;20118;-87
2022/07/31 03:20:28;;;;;;;4.18;1.88;;;;;;;;;;4951831;28;20036;-90
2022/07/31 03:22:53;;;;;;;2.67;1.80;;;;;;;;;;4965691;28;20027;-89
2022/07/31 03:25:19;;;;;;;3.28;2.15;;;;;;;;;;4954288;28;20016;-88
2022/07/31 03:27:47;;;;;;;3.20;1.98;;;;;;;;;;4950977;28;20190;-89
2022/07/31 03:30:23;;;;;;;2.38;1.77;;;;;;;;;;4965810;28;20039;-87
2022/07/31 03:32:51;;;;;;;2.00;1.40;;;;;;;;;;4951502;28;20423;-87
2022/07/31 03:35:17;;;;;;;3.05;1.75;;;;;;;;;;4967005;28;20039;-87
2022/07/31 03:37:42;;;;;;;4.70;1.55;;;;;;;;;;4951592;28;20023;-89
2022/07/31 03:40:09;;;;;;;4.65;1.50;;;;;;;;;;4968384;28;20089;-89
2022/07/31 03:42:34;;;;;;;2.25;1.55;;;;;;;;;;4952739;28;20039;-88
2022/07/31 03:45:01;;;;;;;2.58;1.83;;;;;;;;;;4959030;28;20400;-88
2022/07/31 03:47:30;;;;;;;4.07;1.70;;;;;;;;;;4961195;28;20032;-88
2022/07/31 03:49:56;;;;;;;2.50;1.25;;;;;;;;;;4951052;28;20490;-88
2022/07/31 03:52:22;;;;;;;2.88;1.70;;;;;;;;;;4940382;29;20020;-88
2022/07/31 03:54:54;;;;;;;2.13;1.50;;;;;;;;;;5045446;27;20396;-65
2022/07/31 03:57:21;;;;;;;4.57;1.88;;;;;;;;;;5019494;28;20574;-66
2022/07/31 03:59:49;;;;;;;3.50;1.75;;;;;;;;;;5022537;28;20038;-65
2022/07/31 04:02:15;;;;;;;4.63;1.65;;;;;;;;;;5029232;28;20033;-66
2022/07/31 04:04:41;;;;;;;3.85;1.63;;;;;;;;;;5031635;28;20018;-66
2022/07/31 04:07:07;;;;;;;2.00;1.52;;;;;;;;;;5024295;28;20030;-66
2022/07/31 04:09:32;;;;;;;3.20;1.58;;;;;;;;;;5025418;28;20041;-66
2022/07/31 04:11:58;;;;;;;2.40;1.70;;;;;;;;;;5016590;28;20460;-66
2022/07/31 04:14:23;;;;;;;3.35;1.60;;;;;;;;;;5024442;28;20030;-66
2022/07/31 04:16:48;;;;;;;3.95;1.67;;;;;;;;;;5023686;28;20041;-66
2022/07/31 04:19:14;;;;;;;2.65;1.63;;;;;;;;;;5020656;28;20083;-66
2022/07/31 04:21:39;;;;;;;1.95;1.50;;;;;;;;;;5019040;28;20033;-66
2022/07/31 04:24:06;;;;;;;3.20;1.48;;;;;;;;;;5022046;28;20041;-66
2022/07/31 04:26:31;;;;;;;4.13;1.73;;;;;;;;;;5023463;28;20037;-66
2022/07/31 04:28:57;;;;;;;4.90;1.98;;;;;;;;;;5018181;28;20026;-66
2022/07/31 04:31:22;;;;;;;4.93;2.20;;;;;;;;;;5020537;28;20042;-66
2022/07/31 04:33:49;;;;;;;4.03;2.20;;;;;;;;;;5023532;28;20044;-66
2022/07/31 04:36:16;;;;;;;4.68;2.40;;;;;;;;;;5019596;28;20053;-66
2022/07/31 04:38:41;;;;;;;5.30;2.20;;;;;;;;;;5032664;28;20034;-66
2022/07/31 04:41:07;;;;;;;2.38;1.85;;;;;;;;;;5030412;28;20030;-66
2022/07/31 04:43:32;;;;;;;7.38;2.70;;;;;;;;;;5033180;28;20013;-66
2022/07/31 04:45:57;;;;;;;3.33;2.55;;;;;;;;;;5023000;28;20021;-66
2022/07/31 04:48:23;;;;;;;4.88;2.50;;;;;;;;;;5021429;28;20049;-65
2022/07/31 04:50:48;;;;;;;4.00;2.40;;;;;;;;;;5023897;28;20043;-66
2022/07/31 04:53:13;;;;;;;5.88;2.80;;;;;;;;;;5021677;28;20450;-66
2022/07/31 04:55:39;;;;;;;6.13;2.70;;;;;;;;;;5020579;28;20026;-66
2022/07/31 04:58:04;;;;;;;4.68;2.80;;;;;;;;;;5024533;28;20395;-66
2022/07/31 05:00:29;;;;;;;5.82;3.03;;;;;;;;;;5020951;28;20523;-66
2022/07/31 05:02:55;;;;;;;4.80;2.63;;;;;;;;;;5028402;28;20033;-66
2022/07/31 05:05:20;;;;;;;6.88;3.22;;;;;;;;;;5010281;28;20030;-66
2022/07/31 05:07:45;;;;;;;5.38;2.70;;;;;;;;;;5010113;28;20057;-66
2022/07/31 05:11:21;;;;;;;4.68;3.05;;;;;;;;;;5011528;28;20060;-66
2022/07/31 05:12:56;;;;;;;5.10;2.72;;;;;;;;;;5001686;28;20294;-66
2022/07/31 05:15:21;;;;;;;3.53;2.60;;;;;;;;;;5004116;28;20065;-65
2022/07/31 05:17:47;;;;;;;4.90;3.15;;;;;;;;;;5010248;28;20030;-66
2022/07/31 05:20:12;;;;;;;5.47;3.15;;;;;;;;;;5001567;28;20030;-66
2022/07/31 05:22:37;;;;;;;4.35;2.85;;;;;;;;;;5007725;28;20653;-66
2022/07/31 05:25:03;;;;;;;5.57;3.03;;;;;;;;;;5017382;28;20394;-66
2022/07/31 05:27:28;;;;;;;6.68;3.30;;;;;;;;;;5012026;28;20092;-66
2022/07/31 05:29:55;;;;;;;5.88;3.58;;;;;;;;;;5007627;28;20040;-66
2022/07/31 05:32:21;;;;;;;7.13;3.40;;;;;;;;;;5006673;28;20070;-65
2022/07/31 05:34:46;;;;;;;5.18;2.90;;;;;;;;;;5010730;28;20113;-66
2022/07/31 05:37:11;;;;;;;6.47;3.33;;;;;;;;;;5012379;28;20017;-66
2022/07/31 05:39:37;;;;;;;7.28;3.10;;;;;;;;;;5015087;28;20038;-66
2022/07/31 05:42:02;;;;;;;5.38;2.97;;;;;;;;;;5020350;28;20112;-66
2022/07/31 05:44:27;;;;;;;5.88;2.90;;;;;;;;;;5013860;28;20414;-66
2022/07/31 05:46:53;;;;;;;5.35;2.83;;;;;;;;;;5008676;28;20607;-66
2022/07/31 05:49:18;;;;;;;5.22;2.83;;;;;;;;;;5006475;28;20048;-66
2022/07/31 05:51:45;;;;;;;5.10;3.25;;;;;;;;;;5005413;28;20038;-66
2022/07/31 05:54:10;;;;;;;7.18;3.20;;;;;;;;;;5005383;28;20121;-66
2022/07/31 05:56:36;;;;;;;7.40;3.45;;;;;;;;;;5012361;28;20188;-66
2022/07/31 05:59:01;;;;;;;5.28;2.88;;;;;;;;;;5007269;28;20136;-66
2022/07/31 06:01:26;;;;;;;5.80;3.33;;;;;;;;;;5012260;28;20390;-66
2022/07/31 06:03:52;;;;;;;6.68;3.35;;;;;;;;;;5013074;28;20425;-66
2022/07/31 06:06:17;;;;;;;5.38;3.25;;;;;;;;;;5010484;28;20040;-66
2022/07/31 06:08:42;;;;;;;5.47;3.38;;;;;;;;;;5004249;28;20041;-66
2022/07/31 06:11:08;;;;;;;7.10;3.22;;;;;;;;;;5013915;28;20033;-66
2022/07/31 06:13:33;;;;;;;6.40;3.10;;;;;;;;;;5004818;28;20026;-66
2022/07/31 06:15:58;;;;;;;6.45;2.97;;;;;;;;;;5005121;28;20029;-66
2022/07/31 06:18:24;;;;;;;4.63;3.30;;;;;;;;;;5003875;28;20026;-66
2022/07/31 06:20:49;;;;;;;4.85;3.38;;;;;;;;;;5017599;28;20041;-68
2022/07/31 06:23:15;;;;;;;7.05;3.60;;;;;;;;;;5012183;28;20026;-68
2022/07/31 06:25:40;;;;;;;5.78;2.90;;;;;;;;;;5012560;28;20026;-66
2022/07/31 06:28:06;;;;;;;6.00;3.22;;;;;;;;;;5005648;28;20017;-66
2022/07/31 06:30:31;;;;;;;7.68;3.60;;;;;;;;;;5011411;28;20034;-66
2022/07/31 06:32:56;;;;;;;5.85;3.38;;;;;;;;;;5007347;28;20041;-66
2022/07/31 06:35:22;;;;;;;5.57;3.33;;;;;;;;;;5012412;28;20096;-66
2022/07/31 06:37:47;;;;;;;6.07;3.17;;;;;;;;;;5004250;28;20025;-66
2022/07/31 06:40:13;;;;;;;6.88;3.45;;;;;;;;;;5009299;28;20685;-66
2022/07/31 06:42:38;;;;;;;5.90;3.10;;;;;;;;;;4996586;28;20564;-66
2022/07/31 06:45:04;;;;;;;4.88;3.22;;;;;;;;;;5011280;28;20029;-66
2022/07/31 06:47:30;;;;;;;7.28;3.65;;;;;;;;;;5002007;28;20037;-66
2022/07/31 06:49:55;;;;;;;3.75;2.85;;;;;;;;;;5011547;28;20038;-66
2022/07/31 06:52:21;;;;;;;6.55;3.60;;;;;;;;;;5009375;28;20340;-66
2022/07/31 06:54:47;;;;;;;7.10;3.63;;;;;;;;;;5008700;28;20042;-66
2022/07/31 06:57:13;;;;;;;5.43;2.97;;;;;;;;;;5008683;28;20075;-66
2022/07/31 06:59:39;;;;;;;8.15;3.92;;;;;;;;;;5011430;28;20427;-66
2022/07/31 07:02:04;;;;;;;5.43;3.33;;;;;;;;;;5004197;28;20549;-66
2022/07/31 07:04:30;;;;;;;4.15;3.00;;;;;;;;;;5008001;28;20024;-66
2022/07/31 07:06:55;;;;;;;7.07;3.90;;;;;;;;;;5005501;28;20868;-66
2022/07/31 07:09:20;;;;;;;8.05;3.08;;;;;;;;;;5003952;28;20041;-66
2022/07/31 07:11:46;;;;;;;6.28;3.30;;;;;;;;;;5005977;28;20251;-66
2022/07/31 07:14:15;;;;;;;4.88;3.40;;;;;;;;;;5006530;28;20041;-66
2022/07/31 07:16:40;;;;;;;4.80;3.05;;;;;;;;;;4997609;28;20018;-66
2022/07/31 07:19:05;;;;;;;4.57;2.95;;;;;;;;;;5005787;28;20034;-66
2022/07/31 07:21:31;;;;;;;6.00;2.97;;;;;;;;;;5005867;28;20037;-66
2022/07/31 07:23:56;;;;;;;7.03;3.53;;;;;;;;;;5014591;28;20037;-66
2022/07/31 07:26:22;;;;;;;7.43;3.45;;;;;;;;;;5009917;28;20546;-66
2022/07/31 07:28:47;;;;;;;4.82;3.22;;;;;;;;;;5006859;28;20061;-66
2022/07/31 07:31:12;;;;;;;9.95;3.50;;;;;;;;;;5006202;28;20099;-66
2022/07/31 07:33:37;;;;;;;7.10;3.10;;;;;;;;;;5010847;28;20462;-66
2022/07/31 07:36:03;;;;;;;5.00;3.35;;;;;;;;;;5007619;28;20030;-67
2022/07/31 07:38:29;;;;;;;5.60;3.80;;;;;;;;;;5013719;28;20030;-67
2022/07/31 07:40:54;;;;;;;5.20;3.15;;;;;;;;;;5008837;28;20030;-67
2022/07/31 07:43:19;;;;;;;4.25;3.15;;;;;;;;;;5011741;28;20072;-66
2022/07/31 07:45:45;;;;;;;5.65;3.10;;;;;;;;;;5011732;28;20044;-66
2022/07/31 07:48:10;;;;;;;4.45;3.15;;;;;;;;;;5003121;28;20132;-66
2022/07/31 07:50:35;;;;;;;7.90;3.60;;;;;;;;;;5005354;28;20033;-67
2022/07/31 07:53:01;;;;;;;6.50;3.42;;;;;;;;;;5005407;28;20066;-67
2022/07/31 07:55:26;;;;;;;5.00;3.30;;;;;;;;;;5007910;28;20033;-67
2022/07/31 07:57:52;;;;;;;7.03;3.80;;;;;;;;;;5007883;28;20041;-66
2022/07/31 08:00:17;;;;;;;6.25;3.47;;;;;;;;;;5005241;28;20048;-66
2022/07/31 08:02:47;;;;;;;4.55;3.45;;;;;;;;;;4998668;28;20531;-67
2022/07/31 08:05:13;;;;;;;4.32;3.20;;;;;;;;;;5002773;28;20042;-67
2022/07/31 08:07:39;;;;;;;5.60;3.78;;;;;;;;;;5000320;28;20056;-67
2022/07/31 08:10:06;;;;;;;6.35;3.17;;;;;;;;;;5002924;28;20038;-66
2022/07/31 08:12:32;;;;;;;6.10;3.47;;;;;;;;;;4990145;28;20061;-66
2022/07/31 08:14:58;;;;;;;7.25;3.75;;;;;;;;;;5007766;28;20081;-67
2022/07/31 08:17:23;;;;;;;4.75;3.50;;;;;;;;;;5007761;28;20038;-66
2022/07/31 08:19:49;;;;;;;9.38;3.95;;;;;;;;;;5004007;28;20439;-66
2022/07/31 08:22:14;;;;;;;5.90;3.40;;;;;;;;;;5005834;28;20122;-66
2022/07/31 08:24:40;;;;;;;6.55;3.60;;;;;;;;;;5005711;28;20026;-67
2022/07/31 08:27:23;;;;;;;4.80;3.40;;;;;;;;;;5001357;28;20458;-66
2022/07/31 08:29:52;;;;;;;8.05;3.92;;;;;;;;;;5004272;28;20103;-67
2022/07/31 08:32:18;;;;;;;7.75;3.90;;;;;;;;;;5006693;28;20046;-67
2022/07/31 08:34:43;;;;;;;6.13;3.92;;;;;;;;;;4999205;28;20069;-66
2022/07/31 08:37:09;;;;;;;5.90;3.95;;;;;;;;;;5004762;28;20121;-67
2022/07/31 08:39:35;;;;;;;6.10;4.03;;;;;;;;;;5007271;28;20067;-67
2022/07/31 08:42:06;;;;;;;5.47;4.00;;;;;;;;;;5003682;28;20037;-67
2022/07/31 08:44:34;;;;;;;6.20;3.45;;;;;;;;;;5006081;28;20578;-67
2022/07/31 08:47:01;;;;;;;6.88;4.20;;;;;;;;;;5009616;28;20042;-66
2022/07/31 08:49:29;;;;;;;6.75;3.83;;;;;;;;;;5005718;28;20025;-67
2022/07/31 08:51:54;;;;;;;8.57;4.50;;;;;;;;;;5006861;28;20069;-67
2022/07/31 08:54:21;;;;;;;8.45;4.40;;;;;;;;;;5007134;28;20076;-67
2022/07/31 08:56:51;;;;;;;7.50;4.60;;;;;;;;;;5008242;28;20133;-66
2022/07/31 08:59:17;;;;;;;9.30;4.40;;;;;;;;;;5010591;28;20092;-67
2022/07/31 09:01:43;;;;;;;6.47;4.60;;;;;;;;;;5013095;28;20025;-67
2022/07/31 09:04:08;;;;;;;7.38;4.72;;;;;;;;;;5010002;28;20044;-66
2022/07/31 09:06:35;;;;;;;9.65;4.43;;;;;;;;;;4997707;28;20042;-67
2022/07/31 09:09:00;;;;;;;8.20;4.30;;;;;;;;;;5002572;28;20449;-67
2022/07/31 09:11:26;;;;;;;7.28;4.57;;;;;;;;;;4995950;28;20039;-67
2022/07/31 09:13:57;;;;;;;6.78;3.83;;;;;;;;;;5005605;28;20080;-67
2022/07/31 09:16:23;;;;;;;6.55;3.97;;;;;;;;;;5001898;28;20022;-67
2022/07/31 09:18:56;;;;;;;7.07;4.05;;;;;;;;;;5004690;28;20044;-67
2022/07/31 09:21:22;;;;;;;7.97;3.83;;;;;;;;;;5002062;28;20034;-67
2022/07/31 09:23:47;;;;;;;9.77;3.97;;;;;;;;;;5008458;28;20033;-66
2022/07/31 09:26:14;;;;;;;7.05;3.92;;;;;;;;;;5003945;28;20046;-67
2022/07/31 09:28:50;;;;;;;5.80;3.58;;;;;;;;;;5007407;28;20030;-67
2022/07/31 09:31:15;;;;;;;7.57;3.90;;;;;;;;;;5010915;28;20029;-66
2022/07/31 09:33:45;;;;;;;7.03;4.03;;;;;;;;;;5010006;28;20041;-67
2022/07/31 09:36:11;;;;;;;6.30;3.45;;;;;;;;;;5010055;28;20511;-67
2022/07/31 09:38:41;;;;;;;6.53;3.85;;;;;;;;;;5009529;28;20041;-67
2022/07/31 09:41:25;;;;;;;5.10;4.00;;;;;;;;;;5010401;28;20038;-67
2022/07/31 09:43:54;;;;;;;;;;;;;;;;;;5010174;28;20847;-67
2022/07/31 09:46:19;;;;;;;5.65;3.28;;;;;;;;;;5008396;28;19913;-65
2022/07/31 09:48:54;;;;;;;6.78;3.70;;;;;;;;;;5009631;28;20071;-65
2022/07/31 09:51:20;;;;;;;8.50;3.85;;;;;;;;;;5007588;28;20045;-65
2022/07/31 09:53:56;;;;;;;5.50;3.65;;;;;;;;;;5004321;28;20057;-65
2022/07/31 09:56:29;;;;;;;5.20;3.50;;;;;;;;;;5005761;28;20116;-65
2022/07/31 09:58:55;;;;;;;5.07;3.40;;;;;;;;;;5008739;28;20038;-65
2022/07/31 10:01:21;;;;;;;5.07;3.00;;;;;;;;;;5009451;28;20033;-66
2022/07/31 10:03:49;;;;;;;4.10;2.88;;;;;;;;;;5008247;28;20034;-65
2022/07/31 10:06:15;;;;;;;5.18;3.67;;;;;;;;;;5009491;28;20041;-65
2022/07/31 10:08:43;;;;;;;5.07;2.90;;;;;;;;;;4999510;28;20045;-65
2022/07/31 10:11:09;;;;;;;5.68;3.13;;;;;;;;;;5004305;28;20093;-65
2022/07/31 10:13:36;;;;;;;3.58;2.67;;;;;;;;;;5008608;28;20030;-65
2022/07/31 10:16:02;;;;;;;5.47;2.90;;;;;;;;;;5007604;28;20116;-65
2022/07/31 10:18:30;;;;;;;4.78;2.83;;;;;;;;;;5010740;28;20132;-65
2022/07/31 10:20:59;;;;;;;7.63;2.90;;;;;;;;;;5006375;28;20432;-65
2022/07/31 10:23:27;;;;;;;3.35;2.55;;;;;;;;;;5005892;28;20063;-65
2022/07/31 10:25:57;;;;;;;3.95;2.75;;;;;;;;;;5005984;28;20049;-65
2022/07/31 10:28:24;;;;;;;5.60;2.90;;;;;;;;;;5006632;28;20030;-65
2022/07/31 10:30:49;;;;;;;4.22;2.80;;;;;;;;;;5009092;28;20060;-65
2022/07/31 10:33:16;;;;;;;3.20;2.45;;;;;;;;;;5009277;28;20423;-66
2022/07/31 10:35:49;;;;;;;3.13;2.50;;;;;;;;;;5006628;28;20041;-66
2022/07/31 10:38:22;;;;;;;5.38;2.95;;;;;;;;;;5007193;28;20041;-66
2022/07/31 10:40:56;;;;;;;5.95;2.85;;;;;;;;;;5009060;28;20068;-66
2022/07/31 10:43:40;;;;;;;4.65;3.00;;;;;;;;;;5006271;28;20109;-66
2022/07/31 10:46:06;;;;;;;3.78;2.50;;;;;;;;;;5008732;28;20124;-66
2022/07/31 10:48:31;;;;;;;3.78;2.60;;;;;;;;;;5008422;28;20045;-66
2022/07/31 10:51:06;;;;;;;6.65;2.50;;;;;;;;;;5006505;28;20048;-66
2022/07/31 10:53:31;;;;;;;3.97;2.28;;;;;;;;;;5004191;28;20752;-66
2022/07/31 10:56:11;;;;;;;3.38;2.35;;;;;;;;;;5004401;28;20046;-66
2022/07/31 10:58:48;;;;;;;2.95;2.00;;;;;;;;;;5006776;28;20064;-66
2022/07/31 11:01:14;;;;;;;2.47;1.80;;;;;;;;;;5003432;28;20053;-66
2022/07/31 11:03:43;;;;;;;2.00;1.65;;;;;;;;;;5004103;28;20066;-66
2022/07/31 11:06:09;;;;;;;5.68;1.73;;;;;;;;;;5004409;28;20033;-66
2022/07/31 11:08:47;;;;;;;2.92;1.50;;;;;;;;;;5007213;28;20414;-67
2022/07/31 11:11:13;;;;;;;1.33;1.20;;;;;;;;;;5009666;28;20120;-66
2022/07/31 11:13:50;;;;;;;2.13;1.42;;;;;;;;;;5006562;28;20145;-66
2022/07/31 11:16:16;;;;;;;1.48;1.25;;;;;;;;;;5006119;28;20399;-66
2022/07/31 11:18:44;;;;;;;4.22;1.63;;;;;;;;;;5012225;28;20042;-66
2022/07/31 11:21:10;;;;;;;1.88;1.60;;;;;;;;;;5005279;28;20038;-66
2022/07/31 11:23:36;;;;;;;4.20;1.73;;;;;;;;;;5007464;28;20036;-66
2022/07/31 11:26:04;;;;;;;2.45;1.92;;;;;;;;;;4997340;28;20045;-66
2022/07/31 11:28:30;;;;;;;2.45;1.30;;;;;;;;;;4994782;28;20025;-66
2022/07/31 11:31:03;;;;;;;2.67;1.60;;;;;;;;;;5006957;28;20735;-66
2022/07/31 11:33:46;;;;;;;5.22;1.52;;;;;;;;;;5000833;28;20664;-66
2022/07/31 11:36:11;;;;;;;2.87;1.30;;;;;;;;;;4994910;28;20042;-66
2022/07/31 11:38:39;;;;;;;2.13;1.40;;;;;;;;;;5008101;28;20045;-66
2022/07/31 11:41:05;;;;;;;1.52;1.42;;;;;;;;;;5016295;28;20530;-66
2022/07/31 11:43:31;;;;;;;1.77;1.60;;;;;;;;;;5008562;28;20022;-66
2022/07/31 11:45:56;;;;;;;5.50;1.85;;;;;;;;;;5002367;28;20180;-66
2022/07/31 11:48:23;;;;;;;2.38;1.77;;;;;;;;;;5000089;28;20569;-66
2022/07/31 11:50:49;;;;;;;2.20;1.50;;;;;;;;;;5008797;28;20060;-66
2022/07/31 11:53:16;;;;;;;3.60;1.83;;;;;;;;;;5000724;28;20042;-66
2022/07/31 11:55:44;;;;;;;2.45;1.70;;;;;;;;;;4991845;28;20116;-66
2022/07/31 11:58:13;;;;;;;3.03;1.80;;;;;;;;;;4997380;28;20022;-66
2022/07/31 12:00:38;;;;;;;1.77;1.65;;;;;;;;;;5004660;28;20159;-66
2022/07/31 12:03:04;;;;;;;2.67;1.67;;;;;;;;;;4998792;28;20588;-66
2022/07/31 12:05:29;;;;;;;1.77;1.52;;;;;;;;;;5007957;28;20092;-66
2022/07/31 12:07:55;;;;;;;2.08;1.55;;;;;;;;;;5002724;28;20038;-66
2022/07/31 12:10:21;;;;;;;3.55;1.60;;;;;;;;;;5007790;28;20022;-66
2022/07/31 12:12:46;;;;;;;1.60;1.50;;;;;;;;;;5000281;28;20092;-66
2022/07/31 12:15:19;;;;;;;2.15;1.52;;;;;;;;;;5006370;28;20037;-66
2022/07/31 12:17:45;;;;;;;2.53;1.70;;;;;;;;;;5005004;28;20702;-66
2022/07/31 12:20:11;;;;;;;1.60;1.45;;;;;;;;;;5012262;28;20080;-66
2022/07/31 12:22:37;;;;;;;3.70;1.88;;;;;;;;;;5004842;28;20095;-66
2022/07/31 12:25:02;;;;;;;2.03;1.52;;;;;;;;;;4998452;28;20469;-66
2022/07/31 12:27:28;;;;;;;1.90;1.42;;;;;;;;;;4993187;28;20038;-66
2022/07/31 12:29:53;;;;;;;1.50;1.38;;;;;;;;;;5006938;28;20065;-66
2022/07/31 12:32:28;;;;;;;4.68;1.42;;;;;;;;;;5014074;28;20519;-66
2022/07/31 12:35:02;;;;;;;1.60;1.30;;;;;;;;;;5006754;28;20022;-66
2022/07/31 12:37:27;;;;;;;1.83;1.45;;;;;;;;;;5013357;28;20024;-66
2022/07/31 12:39:54;;;;;;;1.20;1.10;;;;;;;;;;5009798;28;20062;-66
2022/07/31 12:42:21;;;;;;;1.30;1.20;;;;;;;;;;5009732;28;20554;-66
2022/07/31 12:44:47;;;;;;;1.65;1.30;;;;;;;;;;5009787;28;20057;-66
2022/07/31 12:47:27;;;;;;;2.40;1.40;;;;;;;;;;5010501;28;20099;-66
2022/07/31 12:49:53;;;;;;;3.92;1.52;;;;;;;;;;5003846;28;20038;-66
2022/07/31 12:52:19;;;;;;;2.33;1.20;;;;;;;;;;4998962;28;20030;-66
2022/07/31 12:54:45;;;;;;;1.83;1.63;;;;;;;;;;4999089;28;20112;-66
2022/07/31 12:57:10;;;;;;;2.95;1.48;;;;;;;;;;5004891;28;20029;-66
2022/07/31 12:59:35;;;;;;;1.73;1.52;;;;;;;;;;5010711;28;20444;-66
2022/07/31 13:02:02;;;;;;;1.40;1.30;;;;;;;;;;5009587;28;20230;-66
2022/07/31 13:04:27;;;;;;;2.88;1.55;;;;;;;;;;5010855;28;20049;-66
2022/07/31 13:06:53;;;;;;;1.30;1.20;;;;;;;;;;4994235;28;20431;-66
2022/07/31 13:09:18;;;;;;;2.13;1.25;;;;;;;;;;5006499;28;20188;-66
2022/07/31 13:11:44;;;;;;;2.67;1.40;;;;;;;;;;5010663;28;20069;-66
2022/07/31 13:14:10;;;;;;;4.60;1.17;;;;;;;;;;5008960;28;20057;-66
2022/07/31 13:16:35;;;;;;;2.00;1.23;;;;;;;;;;5010887;28;20038;-66
2022/07/31 13:19:00;;;;;;;2.03;1.25;;;;;;;;;;5010158;28;20106;-66
2022/07/31 13:21:26;;;;;;;1.33;1.23;;;;;;;;;;5007651;28;20044;-66
2022/07/31 13:23:52;;;;;;;2.50;1.63;;;;;;;;;;5009787;28;20041;-66
2022/07/31 13:26:18;;;;;;;2.40;1.38;;;;;;;;;;5009856;28;20118;-66
2022/07/31 13:28:43;;;;;;;1.80;1.60;;;;;;;;;;5009898;28;20121;-66
2022/07/31 13:31:09;;;;;;;3.55;1.60;;;;;;;;;;5007384;28;20053;-66
2022/07/31 13:33:34;;;;;;;2.38;1.65;;;;;;;;;;5007123;28;20038;-66
2022/07/31 13:35:59;;;;;;;1.80;1.60;;;;;;;;;;5009589;28;20132;-66
2022/07/31 13:38:25;;;;;;;2.00;1.70;;;;;;;;;;5009427;28;20042;-66
2022/07/31 13:43:44;;;;;;;2.50;1.92;;;;;;;;;;5002283;28;20512;-66
2022/07/31 13:46:10;;;;;;;2.03;1.80;;;;;;;;;;4990841;28;20077;-66
2022/07/31 13:48:35;;;;;;;2.97;1.80;;;;;;;;;;5009264;28;20720;-66
2022/07/31 13:51:00;;;;;;;6.10;1.60;;;;;;;;;;5009564;28;20418;-66
2022/07/31 13:53:26;;;;;;;2.00;1.70;;;;;;;;;;5009455;28;20046;-66
2022/07/31 13:55:52;;;;;;;4.35;1.85;;;;;;;;;;5009215;28;20034;-66
2022/07/31 13:58:18;;;;;;;2.45;1.92;;;;;;;;;;5010269;28;20025;-66
2022/07/31 14:00:43;;;;;;;3.95;1.77;;;;;;;;;;5009288;28;20030;-66
2022/07/31 14:03:09;;;;;;;2.72;1.60;;;;;;;;;;5009530;28;20041;-66
2022/07/31 14:05:34;;;;;;;2.05;1.55;;;;;;;;;;5006522;28;20037;-66
2022/07/31 14:07:59;;;;;;;3.00;2.00;;;;;;;;;;5010025;28;20030;-66
2022/07/31 14:10:25;;;;;;;2.97;1.75;;;;;;;;;;4993555;28;20097;-66
2022/07/31 14:12:52;;;;;;;1.85;1.58;;;;;;;;;;5002734;28;20175;-66
2022/07/31 14:15:17;;;;;;;2.25;1.65;;;;;;;;;;5008054;28;20108;-66
2022/07/31 14:17:43;;;;;;;2.05;1.30;;;;;;;;;;5010811;28;20054;-66
2022/07/31 14:20:09;;;;;;;2.67;1.70;;;;;;;;;;5009591;28;20041;-66
2022/07/31 14:22:34;;;;;;;5.25;1.55;;;;;;;;;;5009400;28;20021;-66
2022/07/31 14:24:59;;;;;;;3.97;1.30;;;;;;;;;;5008468;28;20515;-66
2022/07/31 14:27:25;;;;;;;1.45;1.30;;;;;;;;;;5012046;28;20466;-66
2022/07/31 14:29:50;;;;;;;2.22;1.30;;;;;;;;;;5006465;28;20045;-66
2022/07/31 14:32:16;;;;;;;3.42;1.55;;;;;;;;;;5007472;28;20062;-66
2022/07/31 14:34:41;;;;;;;2.10;1.30;;;;;;;;;;5008680;28;20026;-66
2022/07/31 14:37:07;;;;;;;1.52;1.00;;;;;;;;;;5006562;28;20605;-66
2022/07/31 14:39:32;;;;;;;1.17;1.00;;;;;;;;;;5008520;28;20096;-66
2022/07/31 14:41:57;;;;;;;2.40;1.02;;;;;;;;;;5006589;28;20565;-66
2022/07/31 14:44:23;;;;;;;1.38;1.10;;;;;;;;;;5006012;28;20029;-66